createdAt,value
2023-02-12T00:01:10.712Z,2.20
2023-02-12T00:03:39.364Z,2.20
2023-02-12T00:06:09.145Z,2.10
2023-02-12T00:08:37.259Z,2.20
2023-02-12T00:11:13.493Z,2.20
2023-02-12T00:13:41.214Z,2.20
2023-02-12T00:16:11.619Z,2.10
2023-02-12T00:18:39.784Z,2.20
2023-02-12T00:21:10.731Z,2.10
2023-02-12T00:23:41.146Z,2.10
2023-02-12T00:26:11.079Z,2.10
2023-02-12T00:28:41.652Z,2.10
2023-02-12T00:31:11.611Z,2.10
2023-02-12T00:33:38.925Z,2.10
2023-02-12T00:36:09.604Z,2.10
2023-02-12T00:38:36.809Z,2.10
2023-02-12T00:41:04.407Z,2.10
2023-02-12T00:43:31.555Z,2.10
2023-02-12T00:45:59.373Z,2.10
2023-02-12T00:48:27.484Z,2.10
2023-02-12T00:50:54.897Z,2.00
2023-02-12T00:53:22.265Z,2.00
2023-02-12T00:55:49.845Z,2.00
2023-02-12T00:58:18.879Z,2.00
2023-02-12T01:00:46.792Z,2.00
2023-02-12T01:03:14.273Z,2.00
2023-02-12T01:05:43.035Z,2.00
2023-02-12T01:08:13.671Z,1.90
2023-02-12T01:10:41.920Z,1.90
2023-02-12T01:13:15.241Z,1.90
2023-02-12T01:15:43.161Z,1.90
2023-02-12T01:18:11.039Z,1.90
2023-02-12T01:20:40.245Z,1.80
2023-02-12T01:23:08.608Z,1.80
2023-02-12T01:25:37.886Z,1.80
2023-02-12T01:28:05.147Z,1.80
2023-02-12T01:30:32.657Z,1.80
2023-02-12T01:33:00.686Z,1.70
2023-02-12T01:35:28.243Z,1.70
2023-02-12T01:37:58.114Z,1.70
2023-02-12T01:40:26.546Z,1.60
2023-02-12T01:42:53.691Z,1.60
2023-02-12T01:45:37.594Z,1.50
2023-02-12T01:48:05.187Z,1.40
2023-02-12T01:50:32.812Z,1.30
2023-02-12T01:52:59.986Z,1.30
2023-02-12T01:55:27.868Z,1.20
2023-02-12T01:57:55.020Z,1.20
2023-02-12T02:00:24.959Z,1.20
2023-02-12T02:02:57.006Z,1.10
2023-02-12T02:05:52.435Z,1.00
2023-02-12T02:08:19.790Z,1.00
2023-02-12T02:10:47.132Z,0.90
2023-02-12T02:13:33.902Z,0.80
2023-02-12T02:16:23.461Z,0.70
2023-02-12T02:19:02.575Z,0.70
2023-02-12T02:21:58.301Z,0.60
2023-02-12T02:24:45.167Z,0.60
2023-02-12T02:27:45.268Z,0.50
2023-02-12T02:30:27.463Z,0.50
2023-02-12T02:32:59.286Z,0.40
2023-02-12T02:35:58.369Z,0.50
2023-02-12T02:39:07.832Z,0.30
2023-02-12T02:41:39.951Z,0.30
2023-02-12T02:44:16.640Z,0.20
2023-02-12T02:46:50.155Z,0.20
2023-02-12T02:49:40.316Z,0.60
2023-02-12T02:52:11.926Z,1.00
2023-02-12T02:54:44.666Z,0.10
2023-02-12T02:57:22.407Z,0.00
2023-02-12T03:00:04.143Z,0.00
2023-02-12T03:02:40.430Z,-0.10
2023-02-12T03:05:31.425Z,0.00
2023-02-12T03:08:15.434Z,-0.10
2023-02-12T03:10:49.866Z,-0.20
2023-02-12T03:13:28.827Z,0.10
2023-02-12T03:16:04.497Z,-0.20
2023-02-12T03:18:48.549Z,-0.30
2023-02-12T03:21:20.524Z,-0.30
2023-02-12T03:24:01.867Z,-0.20
2023-02-12T03:26:52.240Z,-0.30
2023-02-12T03:29:19.572Z,-0.40
2023-02-12T03:31:59.175Z,-0.30
2023-02-12T03:34:36.089Z,-0.40
2023-02-12T03:37:15.763Z,-0.50
2023-02-12T03:39:53.846Z,-0.50
2023-02-12T03:42:36.148Z,-0.50
2023-02-12T03:45:10.894Z,-0.50
2023-02-12T03:47:55.099Z,-0.50
2023-02-12T03:50:29.085Z,-0.50
2023-02-12T03:52:56.812Z,-0.10
2023-02-12T03:55:24.818Z,-0.60
2023-02-12T03:57:59.042Z,-0.60
2023-02-12T04:00:26.993Z,-0.70
2023-02-12T04:02:55.462Z,-0.70
2023-02-12T04:05:25.964Z,-0.70
2023-02-12T04:07:55.690Z,-0.70
2023-02-12T04:10:48.484Z,-0.80
2023-02-12T04:13:33.572Z,-0.80
2023-02-12T04:16:19.089Z,-0.80
2023-02-12T04:18:51.861Z,-0.90
2023-02-12T04:21:24.550Z,-0.90
2023-02-12T04:24:28.318Z,-0.90
2023-02-12T04:27:04.685Z,-0.90
2023-02-12T04:29:40.307Z,-0.90
2023-02-12T04:32:17.619Z,-1.00
2023-02-12T04:34:57.421Z,-1.00
2023-02-12T04:37:34.121Z,-1.00
2023-02-12T04:40:05.570Z,-1.10
2023-02-12T04:42:51.698Z,-1.10
2023-02-12T04:45:33.906Z,-1.10
2023-02-12T04:48:01.882Z,-1.20
2023-02-12T04:50:41.422Z,-1.20
2023-02-12T04:53:09.857Z,-1.20
2023-02-12T04:55:37.401Z,-1.20
2023-02-12T04:58:05.854Z,-1.20
2023-02-12T05:00:33.861Z,-1.20
2023-02-12T05:03:01.422Z,-1.30
2023-02-12T05:05:28.975Z,-1.30
2023-02-12T05:07:56.095Z,-1.30
2023-02-12T05:10:23.781Z,-0.20
2023-02-12T05:12:55.053Z,-1.30
2023-02-12T05:15:23.012Z,-1.30
2023-02-12T05:17:50.264Z,-1.10
2023-02-12T05:20:17.848Z,-1.30
2023-02-12T05:22:45.018Z,-1.40
2023-02-12T05:25:12.449Z,-1.40
2023-02-12T05:27:39.616Z,-1.40
2023-02-12T05:30:09.534Z,-1.40
2023-02-12T05:32:36.689Z,-1.40
2023-02-12T05:35:04.786Z,-1.40
2023-02-12T05:37:35.169Z,-1.50
2023-02-12T05:40:05.136Z,-1.50
2023-02-12T05:42:32.467Z,-1.50
2023-02-12T05:44:59.833Z,-1.50
2023-02-12T05:47:26.954Z,-1.50
2023-02-12T05:49:54.382Z,-1.50
2023-02-12T05:52:21.551Z,-1.50
2023-02-12T05:54:52.019Z,-1.50
2023-02-12T05:57:19.290Z,-1.50
2023-02-12T05:59:46.674Z,-1.50
2023-02-12T06:02:13.872Z,-1.50
2023-02-12T06:04:41.353Z,-1.50
2023-02-12T06:07:09.858Z,-1.50
2023-02-12T06:09:37.614Z,-1.50
2023-02-12T06:12:05.159Z,-1.40
2023-02-12T06:14:32.616Z,-1.40
2023-02-12T06:16:59.757Z,-1.30
2023-02-12T06:19:27.728Z,-1.30
2023-02-12T06:21:54.863Z,-1.30
2023-02-12T06:24:22.346Z,-1.30
2023-02-12T06:26:51.339Z,-1.20
2023-02-12T06:29:19.754Z,-0.80
2023-02-12T06:31:47.177Z,-1.20
2023-02-12T06:34:18.124Z,-1.00
2023-02-12T06:36:46.840Z,-1.00
2023-02-12T06:39:15.887Z,-0.90
2023-02-12T06:41:44.108Z,-0.90
2023-02-12T06:44:12.511Z,-0.20
2023-02-12T06:46:39.756Z,-0.70
2023-02-12T06:49:07.771Z,-0.70
2023-02-12T06:51:36.455Z,-0.60
2023-02-12T06:54:04.100Z,-0.50
2023-02-12T06:56:31.256Z,-0.50
2023-02-12T06:59:01.189Z,-0.50
2023-02-12T07:01:30.290Z,-0.40
2023-02-12T07:04:01.118Z,-0.40
2023-02-12T07:06:30.223Z,-0.40
2023-02-12T07:08:57.763Z,-0.30
2023-02-12T07:11:43.279Z,-0.30
2023-02-12T07:14:16.094Z,-0.20
2023-02-12T07:16:43.388Z,-0.20
2023-02-12T07:19:13.514Z,-0.10
2023-02-12T07:21:40.711Z,0.00
2023-02-12T07:24:11.924Z,0.00
2023-02-12T07:26:39.574Z,0.40
2023-02-12T07:29:07.480Z,0.70
2023-02-12T07:31:34.710Z,-0.20
2023-02-12T07:34:02.359Z,0.30
2023-02-12T07:36:31.634Z,-0.20
2023-02-12T07:39:00.083Z,0.10
2023-02-12T07:41:30.598Z,-0.20
2023-02-12T07:44:00.565Z,-0.20
2023-02-12T07:46:30.642Z,0.00
2023-02-12T07:49:00.113Z,-0.10
2023-02-12T07:51:28.124Z,-0.20
2023-02-12T07:53:56.424Z,-0.20
2023-02-12T07:56:32.454Z,0.60
2023-02-12T07:59:02.478Z,-0.20
2023-02-12T08:01:32.860Z,-0.20
2023-02-12T08:04:13.422Z,-0.20
2023-02-12T08:06:43.392Z,-0.20
2023-02-12T08:09:17.102Z,0.10
2023-02-12T08:11:45.252Z,0.00
2023-02-12T08:14:15.538Z,-0.30
2023-02-12T08:16:44.262Z,-0.20
2023-02-12T08:19:18.984Z,-0.20
2023-02-12T08:21:51.261Z,-0.30
2023-02-12T08:24:19.089Z,-0.30
2023-02-12T08:26:46.227Z,-0.20
2023-02-12T08:29:16.671Z,-0.20
2023-02-12T08:31:46.281Z,-0.20
2023-02-12T08:34:25.100Z,-0.20
2023-02-12T08:36:54.300Z,-0.20
2023-02-12T08:39:22.672Z,-0.20
2023-02-12T08:41:50.570Z,-0.10
2023-02-12T08:44:18.194Z,-0.10
2023-02-12T08:46:47.599Z,-0.10
2023-02-12T08:49:20.726Z,0.00
2023-02-12T08:51:53.226Z,0.10
2023-02-12T08:54:26.414Z,0.10
2023-02-12T08:57:02.593Z,0.10
2023-02-12T08:59:30.836Z,0.10
2023-02-12T09:01:58.046Z,0.10
2023-02-12T09:04:28.204Z,0.10
2023-02-12T09:06:55.901Z,0.20
2023-02-12T09:09:23.888Z,0.20
2023-02-12T09:11:51.258Z,0.30
2023-02-12T09:14:24.126Z,0.30
2023-02-12T09:16:53.352Z,0.30
2023-02-12T09:19:20.989Z,0.30
2023-02-12T09:21:55.014Z,0.20
2023-02-12T09:24:23.466Z,0.10
2023-02-12T09:26:50.660Z,0.10
2023-02-12T09:29:18.089Z,0.00
2023-02-12T09:31:45.356Z,0.00
2023-02-12T09:34:12.890Z,0.10
2023-02-12T09:36:40.117Z,0.20
2023-02-12T09:39:07.641Z,0.70
2023-02-12T09:41:43.815Z,0.40
2023-02-12T09:44:43.909Z,0.50
2023-02-12T09:47:57.948Z,0.60
2023-02-12T09:50:37.514Z,0.70
2023-02-12T09:53:05.722Z,0.80
2023-02-12T09:55:34.779Z,0.90
2023-02-12T09:58:11.264Z,0.90
2023-02-12T10:00:39.298Z,1.00
2023-02-12T10:03:13.941Z,1.00
2023-02-12T10:05:57.471Z,1.10
2023-02-12T10:08:49.943Z,1.20
2023-02-12T10:11:36.397Z,1.30
2023-02-12T10:14:34.438Z,1.40
2023-02-12T10:17:08.285Z,1.50
2023-02-12T10:20:02.108Z,1.60
2023-02-12T10:22:57.204Z,1.70
2023-02-12T10:25:44.760Z,1.80
2023-02-12T10:28:17.121Z,1.90
2023-02-12T10:30:58.869Z,2.00
2023-02-12T10:33:49.657Z,2.10
2023-02-12T10:36:43.088Z,2.30
2023-02-12T10:39:10.465Z,2.40
2023-02-12T10:41:43.476Z,2.80
2023-02-12T10:44:12.266Z,3.10
2023-02-12T10:46:39.535Z,3.40
2023-02-12T10:49:12.305Z,3.60
2023-02-12T10:52:03.442Z,3.90
2023-02-12T10:54:47.218Z,4.30
2023-02-12T10:57:29.969Z,4.80
2023-02-12T11:00:15.544Z,5.10
2023-02-12T11:03:04.691Z,4.90
2023-02-12T11:05:35.913Z,4.80
2023-02-12T11:08:04.026Z,4.60
2023-02-12T11:10:36.226Z,4.50
2023-02-12T11:13:04.314Z,4.30
2023-02-12T11:15:52.189Z,4.20
2023-02-12T11:18:33.031Z,4.00
2023-02-12T11:21:07.514Z,3.90
2023-02-12T11:23:37.985Z,3.80
2023-02-12T11:26:25.974Z,3.80
2023-02-12T11:29:16.940Z,3.80
2023-02-12T11:32:04.623Z,3.90
2023-02-12T11:34:31.988Z,3.80
2023-02-12T11:37:00.636Z,3.80
2023-02-12T11:39:34.787Z,3.90
2023-02-12T11:42:06.623Z,3.80
2023-02-12T11:44:40.330Z,3.80
2023-02-12T11:47:33.890Z,3.80
2023-02-12T11:50:26.620Z,3.80
2023-02-12T11:52:58.964Z,3.80
2023-02-12T11:55:36.326Z,3.90
2023-02-12T11:58:20.824Z,4.00
2023-02-12T12:01:29.630Z,4.20
2023-02-12T12:04:14.554Z,4.30
2023-02-12T12:06:46.942Z,4.30
2023-02-12T12:09:37.316Z,4.30
2023-02-12T12:12:23.749Z,4.40
2023-02-12T12:15:15.658Z,4.50
2023-02-12T12:18:06.502Z,4.60
2023-02-12T12:20:43.771Z,4.50
2023-02-12T12:23:21.776Z,4.60
2023-02-12T12:25:57.555Z,4.60
2023-02-12T12:28:36.271Z,4.50
2023-02-12T12:31:12.418Z,4.50
2023-02-12T12:33:49.730Z,4.50
2023-02-12T12:36:30.084Z,4.40
2023-02-12T12:39:21.818Z,4.30
2023-02-12T12:42:05.710Z,4.20
2023-02-12T12:45:09.821Z,4.30
2023-02-12T12:48:05.188Z,4.30
2023-02-12T12:51:02.698Z,4.30
2023-02-12T12:53:48.352Z,4.40
2023-02-12T12:56:33.321Z,4.40
2023-02-12T12:59:19.762Z,4.40
2023-02-12T13:01:52.949Z,4.40
2023-02-12T13:04:32.741Z,4.40
2023-02-12T13:07:24.024Z,4.60
2023-02-12T13:10:10.038Z,4.60
2023-02-12T13:13:14.874Z,4.50
2023-02-12T13:15:57.803Z,4.60
2023-02-12T13:18:35.648Z,4.60
2023-02-12T13:21:34.803Z,4.60
2023-02-12T13:24:34.156Z,4.60
2023-02-12T13:27:11.734Z,4.50
2023-02-12T13:30:01.492Z,4.40
2023-02-12T13:32:32.423Z,4.30
2023-02-12T13:35:00.809Z,4.20
2023-02-12T13:37:45.613Z,4.20
2023-02-12T13:40:31.393Z,4.20
2023-02-12T13:43:11.079Z,4.20
2023-02-12T13:45:44.364Z,4.30
2023-02-12T13:48:41.360Z,4.20
2023-02-12T13:51:28.770Z,4.20
2023-02-12T13:54:14.924Z,4.10
2023-02-12T13:57:03.780Z,4.10
2023-02-12T13:59:40.140Z,4.10
2023-02-12T14:02:28.397Z,4.00
2023-02-12T14:04:59.997Z,4.10
2023-02-12T14:07:58.340Z,4.00
2023-02-12T14:10:33.679Z,4.10
2023-02-12T14:13:18.875Z,4.20
2023-02-12T14:15:53.475Z,4.20
2023-02-12T14:18:29.581Z,4.30
2023-02-12T14:21:12.135Z,4.30
2023-02-12T14:23:42.300Z,4.30
2023-02-12T14:26:16.017Z,4.30
2023-02-12T14:28:55.012Z,4.30
2023-02-12T14:31:35.959Z,4.30
2023-02-12T14:34:06.135Z,4.20
2023-02-12T14:36:33.588Z,4.10
2023-02-12T14:39:05.454Z,4.00
2023-02-12T14:41:42.708Z,4.00
2023-02-12T14:44:23.357Z,3.90
2023-02-12T14:46:55.853Z,3.90
2023-02-12T14:49:44.466Z,3.90
2023-02-12T14:52:17.878Z,3.90
2023-02-12T14:55:07.470Z,3.80
2023-02-12T14:57:41.237Z,3.70
2023-02-12T15:00:25.433Z,3.70
2023-02-12T15:03:48.073Z,3.70
2023-02-12T15:06:22.665Z,3.70
2023-02-12T15:09:02.089Z,3.70
2023-02-12T15:11:52.800Z,3.60
2023-02-12T15:14:28.214Z,3.50
2023-02-12T15:17:12.127Z,3.50
2023-02-12T15:20:04.585Z,3.40
2023-02-12T15:22:36.545Z,3.30
2023-02-12T15:25:25.150Z,3.30
2023-02-12T15:27:57.056Z,3.20
2023-02-12T15:30:28.280Z,3.10
2023-02-12T15:33:02.464Z,3.10
2023-02-12T15:35:32.504Z,3.10
2023-02-12T15:38:01.241Z,3.00
2023-02-12T15:40:30.649Z,3.00
2023-02-12T15:43:17.999Z,3.00
2023-02-12T15:45:52.285Z,2.90
2023-02-12T15:48:21.744Z,2.90
2023-02-12T15:51:09.556Z,2.80
2023-02-12T15:53:38.643Z,2.80
2023-02-12T15:56:15.454Z,2.70
2023-02-12T15:58:54.632Z,2.70
2023-02-12T16:01:25.151Z,2.70
2023-02-12T16:03:57.938Z,2.60
2023-02-12T16:06:27.248Z,2.60
2023-02-12T16:09:08.786Z,2.50
2023-02-12T16:11:37.390Z,2.50
2023-02-12T16:14:08.762Z,2.40
2023-02-12T16:16:49.395Z,2.40
2023-02-12T16:19:20.797Z,2.40
2023-02-12T16:22:10.770Z,2.40
2023-02-12T16:24:43.794Z,2.50
2023-02-12T16:27:24.314Z,2.30
2023-02-12T16:29:57.566Z,2.30
2023-02-12T16:32:30.648Z,2.30
2023-02-12T16:35:05.596Z,2.30
2023-02-12T16:37:38.792Z,2.20
2023-02-12T16:40:18.071Z,2.20
2023-02-12T16:42:48.522Z,2.10
2023-02-12T16:45:28.157Z,2.10
2023-02-12T16:48:16.191Z,2.10
2023-02-12T16:50:50.091Z,2.00
2023-02-12T16:53:25.272Z,2.00
2023-02-12T16:55:52.571Z,2.00
2023-02-12T16:58:20.024Z,1.90
2023-02-12T17:00:47.705Z,1.90
2023-02-12T17:03:17.246Z,1.90
2023-02-12T17:05:45.335Z,1.90
2023-02-12T17:08:18.073Z,1.90
2023-02-12T17:10:45.257Z,1.80
2023-02-12T17:13:12.720Z,1.80
2023-02-12T17:15:56.989Z,1.80
2023-02-12T17:18:25.424Z,1.70
2023-02-12T17:20:56.935Z,1.80
2023-02-12T17:23:25.005Z,1.70
2023-02-12T17:25:52.886Z,1.70
2023-02-12T17:28:21.254Z,1.60
2023-02-12T17:30:48.821Z,1.60
2023-02-12T17:33:16.535Z,1.60
2023-02-12T17:35:43.930Z,1.60
2023-02-12T17:38:11.437Z,1.60
2023-02-12T17:40:39.219Z,1.60
2023-02-12T17:43:07.120Z,1.60
2023-02-12T17:45:34.466Z,1.50
2023-02-12T17:48:02.022Z,1.60
2023-02-12T17:50:29.264Z,1.50
2023-02-12T17:52:56.687Z,1.50
2023-02-12T17:55:23.913Z,1.50
2023-02-12T17:57:55.525Z,1.50
2023-02-12T18:00:23.639Z,1.50
2023-02-12T18:02:52.225Z,1.50
2023-02-12T18:05:19.426Z,1.50
2023-02-12T18:07:46.976Z,1.50
2023-02-12T18:10:14.388Z,1.60
2023-02-12T18:12:42.001Z,1.70
2023-02-12T18:15:10.237Z,2.10
2023-02-12T18:17:37.989Z,1.80
2023-02-12T18:20:05.894Z,1.80
2023-02-12T18:22:34.601Z,1.90
2023-02-12T18:25:01.790Z,2.00
2023-02-12T18:27:29.266Z,2.00
2023-02-12T18:29:57.280Z,2.00
2023-02-12T18:32:24.730Z,2.00
2023-02-12T18:34:52.325Z,2.10
2023-02-12T18:37:19.705Z,2.10
2023-02-12T18:39:46.909Z,2.10
2023-02-12T18:42:14.475Z,2.10
2023-02-12T18:44:42.866Z,2.20
2023-02-12T18:47:10.380Z,2.20
2023-02-12T18:49:37.796Z,2.20
2023-02-12T18:52:05.365Z,2.30
2023-02-12T18:54:32.765Z,2.30
2023-02-12T18:57:00.258Z,2.30
2023-02-12T18:59:27.554Z,2.30
2023-02-12T19:01:55.167Z,2.30
2023-02-12T19:04:24.076Z,2.30
2023-02-12T19:06:54.282Z,2.30
2023-02-12T19:09:24.334Z,2.30
2023-02-12T19:11:54.737Z,2.40
2023-02-12T19:14:23.345Z,2.40
2023-02-12T19:16:51.346Z,2.40
2023-02-12T19:19:21.124Z,2.40
2023-02-12T19:21:49.266Z,2.50
2023-02-12T19:24:17.593Z,2.50
2023-02-12T19:26:45.569Z,2.50
2023-02-12T19:29:13.621Z,2.50
2023-02-12T19:31:45.193Z,2.50
2023-02-12T19:34:20.114Z,2.50
2023-02-12T19:36:49.003Z,2.50
2023-02-12T19:39:19.149Z,2.50
2023-02-12T19:41:47.876Z,2.50
2023-02-12T19:44:19.181Z,2.50
2023-02-12T19:46:48.022Z,2.60
2023-02-12T19:49:20.058Z,2.60
2023-02-12T19:51:47.596Z,2.60
2023-02-12T19:54:16.321Z,2.60
2023-02-12T19:56:44.013Z,2.60
2023-02-12T19:59:14.123Z,2.60
2023-02-12T20:01:41.654Z,2.50
2023-02-12T20:04:10.790Z,2.60
2023-02-12T20:06:38.457Z,2.50
2023-02-12T20:09:07.616Z,2.50
2023-02-12T20:11:39.381Z,2.60
2023-02-12T20:14:10.903Z,2.50
2023-02-12T20:16:42.757Z,2.50
2023-02-12T20:19:14.250Z,2.50
2023-02-12T20:21:42.940Z,2.50
2023-02-12T20:24:10.174Z,2.50
2023-02-12T20:26:38.607Z,2.60
2023-02-12T20:29:05.969Z,2.50
2023-02-12T20:31:35.996Z,2.50
2023-02-12T20:34:08.186Z,2.50
2023-02-12T20:36:38.060Z,2.50
2023-02-12T20:39:07.901Z,2.50
2023-02-12T20:41:37.229Z,2.50
2023-02-12T20:44:06.351Z,2.60
2023-02-12T20:46:37.900Z,2.60
2023-02-12T20:49:06.529Z,2.60
2023-02-12T20:51:34.739Z,2.60
2023-02-12T20:54:03.064Z,2.60
2023-02-12T20:56:33.570Z,2.60
2023-02-12T20:59:00.965Z,2.60
2023-02-12T21:01:34.817Z,2.60
2023-02-12T21:04:05.018Z,2.60
2023-02-12T21:06:33.341Z,2.60
2023-02-12T21:09:00.778Z,2.60
2023-02-12T21:11:29.158Z,2.60
2023-02-12T21:14:02.217Z,2.60
2023-02-12T21:16:32.794Z,2.60
2023-02-12T21:19:00.750Z,2.70
2023-02-12T21:21:33.595Z,2.70
2023-02-12T21:24:02.968Z,2.70
2023-02-12T21:26:32.175Z,2.70
2023-02-12T21:29:02.256Z,2.70
2023-02-12T21:31:32.729Z,2.70
2023-02-12T21:34:01.589Z,2.70
2023-02-12T21:36:41.446Z,2.70
2023-02-12T21:39:11.696Z,2.80
2023-02-12T21:41:41.057Z,2.80
2023-02-12T21:44:12.440Z,2.80
2023-02-12T21:46:40.107Z,2.80
2023-02-12T21:49:08.103Z,2.70
2023-02-12T21:51:39.015Z,2.90
2023-02-12T21:54:11.964Z,2.90
2023-02-12T21:56:41.208Z,2.80
2023-02-12T21:59:09.044Z,2.90
2023-02-12T22:01:47.655Z,2.90
2023-02-12T22:04:15.053Z,2.90
2023-02-12T22:06:46.117Z,3.00
2023-02-12T22:09:16.246Z,3.00
2023-02-12T22:11:44.326Z,3.00
2023-02-12T22:14:17.156Z,3.00
2023-02-12T22:16:45.389Z,3.10
2023-02-12T22:19:12.656Z,3.10
2023-02-12T22:21:41.178Z,3.20
2023-02-12T22:24:11.854Z,3.20
2023-02-12T22:26:39.368Z,3.10
2023-02-12T22:29:09.659Z,3.20
2023-02-12T22:31:39.138Z,3.20
2023-02-12T22:34:15.259Z,3.30
2023-02-12T22:36:44.338Z,3.30
2023-02-12T22:39:13.202Z,3.30
2023-02-12T22:41:42.490Z,3.40
2023-02-12T22:44:12.082Z,3.40
2023-02-12T22:46:40.000Z,3.40
2023-02-12T22:49:07.224Z,3.50
2023-02-12T22:51:36.830Z,3.50
2023-02-12T22:54:04.239Z,3.50
2023-02-12T22:56:31.852Z,3.50
2023-02-12T22:59:01.517Z,3.60
2023-02-12T23:01:30.583Z,3.60
2023-02-12T23:03:58.832Z,3.70
2023-02-12T23:06:29.301Z,3.70
2023-02-12T23:09:02.271Z,3.70
2023-02-12T23:11:31.681Z,3.70
2023-02-12T23:13:59.649Z,3.70
2023-02-12T23:16:27.309Z,3.80
2023-02-12T23:18:59.055Z,3.80
2023-02-12T23:21:27.963Z,3.90
2023-02-12T23:23:55.757Z,3.90
2023-02-12T23:26:23.246Z,3.90
2023-02-12T23:28:50.803Z,4.00
2023-02-12T23:31:18.442Z,4.00
2023-02-12T23:33:45.809Z,4.00
2023-02-12T23:36:13.410Z,4.00
2023-02-12T23:38:40.562Z,4.00
2023-02-12T23:41:08.102Z,4.00
2023-02-12T23:43:35.287Z,4.10
2023-02-12T23:46:03.855Z,4.10
2023-02-12T23:48:31.125Z,4.10
2023-02-12T23:50:58.944Z,4.10
2023-02-12T23:53:26.245Z,4.10
2023-02-12T23:55:53.901Z,4.10
2023-02-12T23:58:21.193Z,4.20
